createdAt,value
2022-12-18T00:01:16.502Z,18.87
2022-12-18T00:03:43.533Z,15.40
2022-12-18T00:06:10.728Z,17.40
2022-12-18T00:08:37.132Z,19.53
2022-12-18T00:11:08.892Z,17.30
2022-12-18T00:13:36.499Z,19.00
2022-12-18T00:16:05.546Z,17.93
2022-12-18T00:18:32.124Z,18.73
2022-12-18T00:21:03.850Z,14.67
2022-12-18T00:23:31.939Z,21.10
2022-12-18T00:26:03.492Z,18.37
2022-12-18T00:28:30.289Z,19.47
2022-12-18T00:31:05.114Z,16.80
2022-12-18T00:33:32.213Z,15.80
2022-12-18T00:36:06.026Z,13.77
2022-12-18T00:38:33.144Z,19.27
2022-12-18T00:40:59.740Z,16.57
2022-12-18T00:43:26.366Z,18.30
2022-12-18T00:45:52.884Z,18.17
2022-12-18T00:48:19.516Z,17.83
2022-12-18T00:50:46.288Z,17.07
2022-12-18T00:53:13.239Z,21.57
2022-12-18T00:55:44.602Z,16.97
2022-12-18T00:58:11.928Z,18.23
2022-12-18T01:00:39.062Z,18.67
2022-12-18T01:03:06.483Z,15.37
2022-12-18T01:05:33.663Z,12.60
2022-12-18T01:08:00.144Z,19.03
2022-12-18T01:10:26.691Z,17.63
2022-12-18T01:12:53.133Z,17.47
2022-12-18T01:15:20.326Z,17.17
2022-12-18T01:17:46.719Z,14.00
2022-12-18T01:20:13.544Z,18.83
2022-12-18T01:22:40.220Z,17.17
2022-12-18T01:25:07.054Z,18.47
2022-12-18T01:27:34.844Z,17.83
2022-12-18T01:30:01.398Z,16.97
2022-12-18T01:32:31.370Z,17.70
2022-12-18T01:34:57.913Z,16.80
2022-12-18T01:37:24.312Z,18.43
2022-12-18T01:39:50.990Z,17.13
2022-12-18T01:42:18.216Z,16.53
2022-12-18T01:45:07.580Z,17.67
2022-12-18T01:47:46.396Z,19.37
2022-12-18T01:50:39.449Z,21.40
2022-12-18T01:53:19.928Z,18.57
2022-12-18T01:55:52.913Z,18.27
2022-12-18T01:58:23.073Z,20.87
2022-12-18T02:00:49.735Z,17.13
2022-12-18T02:03:16.324Z,16.07
2022-12-18T02:05:49.156Z,18.23
2022-12-18T02:08:49.361Z,14.40
2022-12-18T02:11:31.599Z,16.80
2022-12-18T02:14:04.597Z,19.00
2022-12-18T02:16:45.031Z,16.43
2022-12-18T02:19:36.493Z,17.87
2022-12-18T02:22:27.376Z,15.30
2022-12-18T02:25:24.610Z,17.40
2022-12-18T02:27:55.569Z,12.80
2022-12-18T02:30:22.907Z,15.73
2022-12-18T02:32:53.159Z,19.50
2022-12-18T02:35:31.194Z,16.17
2022-12-18T02:37:59.052Z,16.37
2022-12-18T02:40:28.468Z,15.63
2022-12-18T02:42:55.419Z,15.67
2022-12-18T02:45:22.105Z,12.90
2022-12-18T02:47:50.976Z,14.63
2022-12-18T02:50:26.003Z,15.67
2022-12-18T02:53:16.612Z,16.77
2022-12-18T02:56:01.861Z,15.03
2022-12-18T02:58:47.857Z,15.53
2022-12-18T03:01:22.936Z,14.07
2022-12-18T03:03:59.210Z,16.30
2022-12-18T03:06:40.601Z,14.40
2022-12-18T03:09:19.796Z,15.57
2022-12-18T03:12:13.001Z,13.87
2022-12-18T03:14:41.372Z,12.90
2022-12-18T03:17:14.581Z,14.77
2022-12-18T03:19:43.850Z,14.77
2022-12-18T03:22:11.163Z,15.87
2022-12-18T03:24:40.510Z,16.57
2022-12-18T03:27:13.888Z,13.37
2022-12-18T03:29:47.212Z,14.80
2022-12-18T03:32:20.448Z,13.20
2022-12-18T03:34:50.085Z,13.93
2022-12-18T03:37:16.487Z,16.57
2022-12-18T03:39:43.007Z,13.97
2022-12-18T03:42:37.139Z,16.33
2022-12-18T03:45:06.362Z,13.63
2022-12-18T03:47:58.978Z,17.13
2022-12-18T03:50:30.744Z,13.97
2022-12-18T03:53:13.075Z,14.40
2022-12-18T03:55:40.523Z,13.97
2022-12-18T03:58:09.879Z,12.93
2022-12-18T04:00:36.589Z,15.20
2022-12-18T04:03:05.690Z,12.73
2022-12-18T04:05:34.679Z,15.03
2022-12-18T04:08:02.286Z,13.40
2022-12-18T04:10:28.865Z,14.50
2022-12-18T04:12:59.038Z,12.87
2022-12-18T04:15:25.788Z,14.87
2022-12-18T04:17:52.264Z,13.17
2022-12-18T04:20:19.765Z,12.30
2022-12-18T04:22:46.335Z,15.17
2022-12-18T04:25:13.506Z,13.87
2022-12-18T04:27:40.121Z,13.30
2022-12-18T04:30:07.378Z,12.40
2022-12-18T04:32:35.274Z,13.67
2022-12-18T04:35:01.778Z,14.57
2022-12-18T04:37:28.264Z,13.20
2022-12-18T04:39:54.655Z,13.83
2022-12-18T04:42:21.095Z,14.67
2022-12-18T04:44:47.517Z,13.93
2022-12-18T04:47:13.996Z,13.83
2022-12-18T04:49:40.478Z,11.43
2022-12-18T04:52:08.455Z,12.97
2022-12-18T04:54:34.911Z,13.00
2022-12-18T04:57:01.490Z,13.57
2022-12-18T04:59:28.048Z,12.40
2022-12-18T05:01:54.465Z,13.10
2022-12-18T05:04:20.936Z,12.43
2022-12-18T05:06:47.325Z,14.83
2022-12-18T05:09:14.604Z,12.93
2022-12-18T05:11:41.003Z,14.23
2022-12-18T05:14:07.396Z,12.50
2022-12-18T05:16:33.899Z,12.80
2022-12-18T05:19:00.341Z,11.57
2022-12-18T05:21:26.748Z,12.57
2022-12-18T05:23:53.292Z,11.43
2022-12-18T05:26:20.089Z,11.43
2022-12-18T05:28:46.947Z,12.40
2022-12-18T05:31:13.984Z,12.50
2022-12-18T05:33:40.783Z,12.53
2022-12-18T05:36:09.455Z,12.83
2022-12-18T05:38:38.670Z,14.17
2022-12-18T05:41:05.534Z,13.47
2022-12-18T05:43:32.308Z,14.83
2022-12-18T05:45:58.747Z,10.97
2022-12-18T05:48:25.339Z,14.57
2022-12-18T05:50:52.023Z,13.70
2022-12-18T05:53:21.071Z,16.37
2022-12-18T05:55:48.419Z,12.93
2022-12-18T05:58:15.761Z,13.70
2022-12-18T06:00:44.505Z,13.80
2022-12-18T06:03:12.683Z,15.67
2022-12-18T06:05:41.717Z,13.60
2022-12-18T06:08:08.610Z,11.93
2022-12-18T06:10:35.161Z,13.00
2022-12-18T06:13:02.198Z,14.67
2022-12-18T06:15:28.859Z,14.53
2022-12-18T06:17:55.275Z,14.53
2022-12-18T06:20:23.014Z,13.90
2022-12-18T06:22:49.624Z,14.27
2022-12-18T06:25:16.310Z,15.30
2022-12-18T06:27:43.064Z,15.13
2022-12-18T06:30:12.226Z,14.83
2022-12-18T06:32:39.061Z,14.93
2022-12-18T06:35:06.208Z,15.23
2022-12-18T06:37:32.849Z,15.47
2022-12-18T06:39:59.388Z,15.57
2022-12-18T06:42:26.374Z,14.03
2022-12-18T06:44:52.900Z,15.13
2022-12-18T06:47:19.559Z,16.27
2022-12-18T06:49:46.000Z,15.27
2022-12-18T06:52:12.421Z,15.40
2022-12-18T06:54:38.823Z,16.00
2022-12-18T06:57:05.218Z,13.60
2022-12-18T06:59:31.695Z,16.00
2022-12-18T07:01:58.204Z,15.50
2022-12-18T07:04:32.662Z,13.20
2022-12-18T07:06:59.075Z,13.27
2022-12-18T07:09:26.658Z,14.00
2022-12-18T07:11:53.400Z,14.47
2022-12-18T07:14:20.215Z,13.60
2022-12-18T07:16:46.706Z,14.60
2022-12-18T07:19:13.254Z,13.83
2022-12-18T07:21:39.704Z,12.40
2022-12-18T07:24:06.798Z,14.47
2022-12-18T07:26:33.249Z,14.33
2022-12-18T07:28:59.720Z,15.93
2022-12-18T07:31:27.341Z,15.57
2022-12-18T07:33:54.209Z,13.07
2022-12-18T07:36:21.002Z,14.50
2022-12-18T07:38:49.115Z,14.77
2022-12-18T07:41:15.935Z,13.90
2022-12-18T07:43:43.327Z,13.47
2022-12-18T07:46:13.201Z,15.30
2022-12-18T07:48:41.153Z,13.17
2022-12-18T07:51:08.365Z,12.90
2022-12-18T07:53:36.764Z,16.80
2022-12-18T07:58:55.538Z,13.67
2022-12-18T08:01:22.161Z,13.03
2022-12-18T08:03:48.929Z,15.80
2022-12-18T08:06:18.582Z,15.30
2022-12-18T08:08:44.996Z,14.80
2022-12-18T08:11:11.433Z,14.10
2022-12-18T08:13:38.285Z,12.23
2022-12-18T08:16:07.993Z,14.80
2022-12-18T08:18:38.555Z,12.80
2022-12-18T08:21:16.968Z,12.97
2022-12-18T08:23:44.063Z,13.17
2022-12-18T08:26:12.500Z,12.90
2022-12-18T08:28:39.592Z,12.17
2022-12-18T08:31:07.000Z,12.17
2022-12-18T08:33:34.504Z,12.97
2022-12-18T08:36:01.904Z,11.50
2022-12-18T08:38:28.813Z,12.43
2022-12-18T08:41:02.828Z,12.80
2022-12-18T08:43:47.621Z,12.10
2022-12-18T08:46:17.207Z,13.53
2022-12-18T08:48:44.642Z,11.73
2022-12-18T08:51:11.296Z,12.07
2022-12-18T08:53:39.001Z,12.17
2022-12-18T08:56:06.364Z,11.27
2022-12-18T08:58:32.777Z,11.80
2022-12-18T09:01:04.036Z,11.97
2022-12-18T09:03:30.786Z,11.27
2022-12-18T09:05:57.310Z,10.83
2022-12-18T09:08:24.021Z,13.33
2022-12-18T09:10:51.342Z,11.07
2022-12-18T09:13:18.575Z,11.63
2022-12-18T09:15:48.912Z,12.03
2022-12-18T09:18:17.159Z,10.80
2022-12-18T09:20:44.021Z,8.93
2022-12-18T09:23:10.552Z,10.07
2022-12-18T09:25:37.974Z,10.07
2022-12-18T09:28:17.610Z,9.60
2022-12-18T09:30:47.555Z,11.57
2022-12-18T09:33:14.681Z,10.27
2022-12-18T09:35:43.190Z,11.03
2022-12-18T09:38:14.141Z,11.07
2022-12-18T09:40:50.394Z,12.30
2022-12-18T09:43:23.804Z,11.97
2022-12-18T09:45:59.344Z,11.43
2022-12-18T09:48:36.129Z,12.20
2022-12-18T09:51:15.688Z,6.33
2022-12-18T09:53:47.335Z,11.53
2022-12-18T09:56:20.558Z,10.83
2022-12-18T09:59:22.372Z,12.50
2022-12-18T10:01:48.999Z,14.63
2022-12-18T10:04:18.413Z,11.63
2022-12-18T10:07:04.342Z,10.73
2022-12-18T10:10:11.242Z,9.77
2022-12-18T10:13:01.001Z,10.10
2022-12-18T10:15:43.328Z,11.83
2022-12-18T10:18:34.637Z,12.37
2022-12-18T10:21:27.382Z,10.23
2022-12-18T10:23:59.746Z,11.47
2022-12-18T10:26:26.592Z,10.83
2022-12-18T10:28:55.038Z,12.07
2022-12-18T10:31:24.254Z,11.37
2022-12-18T10:33:51.798Z,12.30
2022-12-18T10:36:18.265Z,10.80
2022-12-18T10:38:44.886Z,10.17
2022-12-18T10:41:22.966Z,10.20
2022-12-18T10:43:49.439Z,13.87
2022-12-18T10:46:20.680Z,12.17
2022-12-18T10:48:53.021Z,9.63
2022-12-18T10:51:31.863Z,12.97
2022-12-18T10:54:02.685Z,12.53
2022-12-18T10:56:32.570Z,10.90
2022-12-18T10:59:11.268Z,9.67
2022-12-18T11:01:49.973Z,11.20
2022-12-18T11:04:23.363Z,11.50
2022-12-18T11:07:09.807Z,11.27
2022-12-18T11:09:40.943Z,10.97
2022-12-18T11:12:23.560Z,12.73
2022-12-18T11:14:52.661Z,8.47
2022-12-18T11:17:27.218Z,10.60
2022-12-18T11:20:20.237Z,10.03
2022-12-18T11:22:57.457Z,11.60
2022-12-18T11:25:33.152Z,12.07
2022-12-18T11:28:35.341Z,12.47
2022-12-18T11:31:20.133Z,12.77
2022-12-18T11:34:26.734Z,11.33
2022-12-18T11:36:43.941Z,12.33
2022-12-18T11:39:18.233Z,8.97
2022-12-18T11:42:10.466Z,12.27
2022-12-18T11:44:45.923Z,13.33
2022-12-18T11:47:22.798Z,12.33
2022-12-18T11:49:51.322Z,13.97
2022-12-18T11:52:22.139Z,10.90
2022-12-18T11:54:52.738Z,11.70
2022-12-18T11:57:41.654Z,11.17
2022-12-18T12:00:19.863Z,13.87
2022-12-18T12:03:29.375Z,11.87
2022-12-18T12:05:55.788Z,10.03
2022-12-18T12:08:28.796Z,12.17
2022-12-18T12:11:04.608Z,12.23
2022-12-18T12:13:53.476Z,8.87
2022-12-18T12:16:37.084Z,11.80
2022-12-18T12:19:22.167Z,11.60
2022-12-18T12:22:22.299Z,10.73
2022-12-18T12:25:19.949Z,9.03
2022-12-18T12:28:05.338Z,10.97
2022-12-18T12:31:03.865Z,12.20
2022-12-18T12:33:50.304Z,10.53
2022-12-18T12:36:42.746Z,11.70
2022-12-18T12:39:15.413Z,10.70
2022-12-18T12:42:04.427Z,11.53
2022-12-18T12:44:36.609Z,10.77
2022-12-18T12:47:12.890Z,11.87
2022-12-18T12:49:41.111Z,8.90
2022-12-18T12:52:15.058Z,11.30
2022-12-18T12:54:43.212Z,11.90
2022-12-18T12:57:12.525Z,9.77
2022-12-18T12:59:42.517Z,11.27
2022-12-18T13:02:24.249Z,11.60
2022-12-18T13:05:01.884Z,11.40
2022-12-18T13:07:43.540Z,11.43
2022-12-18T13:10:23.560Z,11.50
2022-12-18T13:13:28.763Z,11.97
2022-12-18T13:16:09.204Z,10.77
2022-12-18T13:18:36.178Z,13.07
2022-12-18T13:21:22.078Z,12.07
2022-12-18T13:23:48.636Z,13.27
2022-12-18T13:26:21.969Z,10.77
2022-12-18T13:28:57.805Z,10.50
2022-12-18T13:31:43.464Z,9.83
2022-12-18T13:34:26.843Z,12.47
2022-12-18T13:36:58.283Z,13.30
2022-12-18T13:39:35.356Z,12.17
2022-12-18T13:42:08.923Z,10.30
2022-12-18T13:44:40.602Z,10.47
2022-12-18T13:47:32.553Z,10.27
2022-12-18T13:50:00.046Z,9.33
2022-12-18T13:52:29.524Z,10.97
2022-12-18T13:54:58.898Z,11.40
2022-12-18T13:57:30.345Z,12.30
2022-12-18T13:59:57.825Z,10.47
2022-12-18T14:02:29.386Z,10.10
2022-12-18T14:04:56.406Z,12.47
2022-12-18T14:07:26.255Z,11.43
2022-12-18T14:10:06.465Z,10.83
2022-12-18T14:12:57.733Z,12.07
2022-12-18T14:15:27.421Z,12.73
2022-12-18T14:17:56.566Z,11.67
2022-12-18T14:20:25.036Z,9.53
2022-12-18T14:22:51.780Z,11.30
2022-12-18T14:25:21.685Z,11.17
2022-12-18T14:27:52.523Z,12.73
2022-12-18T14:30:31.529Z,9.00
2022-12-18T14:33:07.058Z,14.30
2022-12-18T14:35:36.116Z,12.07
2022-12-18T14:38:23.355Z,9.17
2022-12-18T14:40:55.130Z,10.73
2022-12-18T14:43:22.210Z,10.43
2022-12-18T14:45:50.483Z,10.73
2022-12-18T14:48:33.947Z,12.20
2022-12-18T14:51:04.356Z,11.50
2022-12-18T14:53:37.633Z,12.37
2022-12-18T14:56:20.623Z,11.93
2022-12-18T14:58:49.573Z,12.03
2022-12-18T15:01:35.874Z,12.43
2022-12-18T15:04:04.007Z,11.03
2022-12-18T15:06:36.497Z,12.73
2022-12-18T15:09:26.270Z,12.80
2022-12-18T15:12:00.364Z,11.13
2022-12-18T15:14:42.590Z,12.03
2022-12-18T15:17:19.115Z,11.23
2022-12-18T15:19:47.246Z,12.43
2022-12-18T15:22:24.519Z,13.13
2022-12-18T15:24:52.163Z,12.53
2022-12-18T15:27:31.764Z,11.40
2022-12-18T15:30:10.640Z,9.67
2022-12-18T15:32:38.645Z,9.97
2022-12-18T15:35:25.637Z,10.37
2022-12-18T15:37:53.122Z,10.60
2022-12-18T15:40:24.798Z,9.07
2022-12-18T15:43:13.894Z,10.33
2022-12-18T15:45:40.663Z,10.87
2022-12-18T15:48:22.495Z,11.27
2022-12-18T15:50:51.449Z,11.30
2022-12-18T15:53:18.791Z,11.00
2022-12-18T15:56:03.907Z,9.97
2022-12-18T15:58:30.365Z,10.20
2022-12-18T16:01:00.085Z,12.47
2022-12-18T16:03:26.649Z,10.33
2022-12-18T16:05:53.123Z,12.00
2022-12-18T16:08:20.653Z,9.77
2022-12-18T16:10:47.070Z,11.70
2022-12-18T16:13:21.759Z,8.50
2022-12-18T16:15:48.396Z,11.30
2022-12-18T16:18:15.301Z,9.97
2022-12-18T16:20:41.851Z,11.90
2022-12-18T16:23:08.414Z,11.13
2022-12-18T16:25:34.852Z,12.07
2022-12-18T16:28:01.379Z,10.83
2022-12-18T16:30:34.023Z,12.57
2022-12-18T16:33:04.806Z,13.87
2022-12-18T16:35:31.360Z,13.07
2022-12-18T16:37:57.849Z,9.90
2022-12-18T16:40:24.277Z,12.20
2022-12-18T16:42:50.798Z,11.27
2022-12-18T16:45:18.933Z,11.80
2022-12-18T16:47:46.257Z,10.10
2022-12-18T16:50:13.272Z,12.47
2022-12-18T16:52:40.163Z,11.67
2022-12-18T16:55:07.003Z,12.40
2022-12-18T16:57:33.784Z,11.80
2022-12-18T17:00:05.050Z,11.50
2022-12-18T17:02:32.085Z,9.30
2022-12-18T17:04:59.180Z,12.47
2022-12-18T17:07:26.596Z,10.67
2022-12-18T17:09:54.148Z,11.77
2022-12-18T17:12:21.496Z,10.87
2022-12-18T17:14:48.188Z,10.17
2022-12-18T17:17:23.801Z,10.93
2022-12-18T17:19:52.148Z,10.23
2022-12-18T17:22:19.180Z,11.30
2022-12-18T17:24:47.068Z,8.13
2022-12-18T17:27:13.639Z,10.83
2022-12-18T17:29:45.306Z,11.10
2022-12-18T17:32:14.031Z,11.43
2022-12-18T17:34:40.844Z,10.40
2022-12-18T17:37:07.568Z,9.87
2022-12-18T17:39:34.088Z,11.17
2022-12-18T17:42:01.431Z,10.53
2022-12-18T17:44:27.888Z,10.13
2022-12-18T17:46:54.459Z,12.30
2022-12-18T17:49:21.561Z,9.77
2022-12-18T17:51:48.498Z,11.47
2022-12-18T17:54:15.040Z,11.37
2022-12-18T17:56:41.540Z,12.57
2022-12-18T17:59:08.278Z,11.90
2022-12-18T18:01:38.451Z,11.47
2022-12-18T18:04:05.274Z,9.57
2022-12-18T18:06:31.783Z,12.60
2022-12-18T18:09:00.968Z,12.60
2022-12-18T18:11:46.171Z,7.57
2022-12-18T18:14:19.243Z,12.40
2022-12-18T18:16:50.795Z,12.63
2022-12-18T18:19:22.947Z,11.17
2022-12-18T18:21:52.387Z,11.47
2022-12-18T18:24:23.253Z,10.27
2022-12-18T18:26:50.189Z,11.10
2022-12-18T18:29:22.931Z,10.30
2022-12-18T18:31:49.534Z,10.87
2022-12-18T18:34:18.042Z,9.43
2022-12-18T18:36:46.226Z,13.83
2022-12-18T18:39:13.269Z,9.63
2022-12-18T18:41:39.710Z,11.33
2022-12-18T18:44:06.948Z,10.53
2022-12-18T18:46:33.524Z,12.10
2022-12-18T18:48:59.970Z,12.40
2022-12-18T18:51:31.479Z,11.67
2022-12-18T18:54:01.440Z,13.50
2022-12-18T18:56:56.616Z,11.87
2022-12-18T18:59:14.341Z,10.77
2022-12-18T19:01:41.060Z,13.07
2022-12-18T19:04:07.722Z,12.83
2022-12-18T19:06:34.486Z,11.50
2022-12-18T19:09:02.593Z,11.90
2022-12-18T19:11:48.427Z,12.17
2022-12-18T19:14:15.840Z,12.50
2022-12-18T19:16:43.776Z,8.83
2022-12-18T19:19:10.330Z,10.63
2022-12-18T19:21:38.219Z,10.70
2022-12-18T19:24:06.343Z,13.93
2022-12-18T19:26:32.808Z,13.40
2022-12-18T19:29:07.538Z,10.80
2022-12-18T19:31:36.733Z,13.43
2022-12-18T19:34:06.598Z,14.13
2022-12-18T19:36:35.693Z,13.43
2022-12-18T19:39:02.496Z,12.43
2022-12-18T19:41:31.360Z,13.83
2022-12-18T19:43:59.777Z,13.13
2022-12-18T19:46:26.382Z,15.43
2022-12-18T19:48:52.943Z,13.43
2022-12-18T19:51:28.721Z,11.77
2022-12-18T19:53:58.871Z,12.60
2022-12-18T19:56:27.898Z,12.57
2022-12-18T19:58:54.721Z,14.13
2022-12-18T20:01:23.040Z,15.07
2022-12-18T20:03:52.448Z,14.23
2022-12-18T20:06:26.735Z,13.73
2022-12-18T20:09:00.046Z,15.33
2022-12-18T20:11:27.538Z,14.70
2022-12-18T20:13:53.965Z,14.67
2022-12-18T20:16:20.654Z,13.83
2022-12-18T20:18:47.250Z,16.07
2022-12-18T20:21:14.511Z,15.57
2022-12-18T20:23:41.889Z,13.67
2022-12-18T20:26:09.026Z,12.30
2022-12-18T20:28:35.858Z,12.87
2022-12-18T20:31:06.430Z,13.33
2022-12-18T20:33:33.271Z,15.90
2022-12-18T20:36:06.076Z,13.63
2022-12-18T20:38:34.552Z,13.33
2022-12-18T20:41:02.520Z,16.73
2022-12-18T20:43:29.714Z,13.93
2022-12-18T20:46:08.213Z,11.20
2022-12-18T20:48:35.306Z,15.93
2022-12-18T20:51:05.553Z,15.07
2022-12-18T20:53:33.458Z,15.00
2022-12-18T20:55:59.998Z,15.00
2022-12-18T20:58:26.421Z,15.80
2022-12-18T21:01:14.879Z,13.50
2022-12-18T21:03:43.297Z,15.00
2022-12-18T21:06:10.769Z,14.27
2022-12-18T21:08:37.734Z,15.87
2022-12-18T21:11:44.892Z,14.80
2022-12-18T21:14:14.641Z,12.50
2022-12-18T21:16:43.769Z,13.33
2022-12-18T21:19:19.003Z,16.60
2022-12-18T21:21:45.832Z,12.20
2022-12-18T21:24:12.564Z,15.17
2022-12-18T21:26:45.427Z,17.43
2022-12-18T21:29:15.522Z,16.07
2022-12-18T21:31:42.462Z,15.17
2022-12-18T21:34:15.790Z,16.30
2022-12-18T21:36:42.235Z,17.30
2022-12-18T21:39:08.823Z,17.17
2022-12-18T21:41:54.252Z,15.03
2022-12-18T21:44:23.002Z,12.27
2022-12-18T21:46:56.180Z,14.10
2022-12-18T21:49:26.472Z,17.10
2022-12-18T21:51:56.658Z,15.37
2022-12-18T21:54:25.839Z,19.13
2022-12-18T21:56:56.427Z,15.73
2022-12-18T21:59:31.067Z,15.93
2022-12-18T22:02:00.590Z,15.03
2022-12-18T22:04:27.311Z,11.83
2022-12-18T22:06:55.180Z,17.00
2022-12-18T22:09:24.043Z,15.17
2022-12-18T22:11:52.051Z,18.63
2022-12-18T22:14:18.482Z,15.13
2022-12-18T22:16:45.321Z,15.90
2022-12-18T22:19:12.370Z,16.40
2022-12-18T22:21:46.516Z,18.73
2022-12-18T22:24:24.727Z,15.33
2022-12-18T22:26:53.149Z,16.03
2022-12-18T22:29:44.246Z,17.13
2022-12-18T22:32:14.565Z,17.27
2022-12-18T22:34:42.833Z,15.43
2022-12-18T22:37:12.793Z,17.90
2022-12-18T22:39:40.030Z,19.23
2022-12-18T22:42:07.322Z,18.43
2022-12-18T22:44:33.898Z,18.17
2022-12-18T22:47:06.855Z,18.97
2022-12-18T22:49:35.132Z,17.00
2022-12-18T22:52:03.197Z,19.03
2022-12-18T22:54:29.669Z,14.87
2022-12-18T22:56:56.072Z,14.97
2022-12-18T22:59:23.366Z,17.87
2022-12-18T23:01:58.710Z,18.13
2022-12-18T23:04:30.629Z,15.10
2022-12-18T23:07:05.197Z,11.63
2022-12-18T23:09:32.529Z,16.47
2022-12-18T23:11:59.056Z,14.87
2022-12-18T23:14:25.490Z,18.27
2022-12-18T23:16:52.245Z,14.70
2022-12-18T23:19:19.785Z,16.53
2022-12-18T23:21:46.471Z,16.20
2022-12-18T23:24:12.930Z,13.73
2022-12-18T23:26:39.403Z,16.40
2022-12-18T23:29:05.913Z,16.67
2022-12-18T23:31:35.122Z,15.70
2022-12-18T23:34:03.766Z,13.97
2022-12-18T23:36:30.856Z,14.57
2022-12-18T23:39:11.736Z,16.40
2022-12-18T23:41:41.862Z,16.83
2022-12-18T23:44:10.001Z,15.63
2022-12-18T23:46:37.560Z,15.13
2022-12-18T23:49:06.533Z,15.77
2022-12-18T23:51:33.141Z,13.43
2022-12-18T23:54:01.608Z,12.90
2022-12-18T23:56:29.997Z,13.87
2022-12-18T23:58:57.024Z,15.80
